createdAt,value
2022-10-10T00:01:26.682Z,4.68
2022-10-10T00:03:34.215Z,5.60
2022-10-10T00:05:39.960Z,6.15
2022-10-10T00:07:45.557Z,3.58
2022-10-10T00:09:50.912Z,4.72
2022-10-10T00:11:55.746Z,5.60
2022-10-10T00:14:00.828Z,3.90
2022-10-10T00:16:05.690Z,4.55
2022-10-10T00:18:10.767Z,5.93
2022-10-10T00:20:20.338Z,6.50
2022-10-10T00:22:25.070Z,5.20
2022-10-10T00:24:29.866Z,6.05
2022-10-10T00:26:34.652Z,7.05
2022-10-10T00:28:40.455Z,7.55
2022-10-10T00:30:45.790Z,6.80
2022-10-10T00:34:59.361Z,8.02
2022-10-10T00:37:07.570Z,5.57
2022-10-10T00:39:12.325Z,6.22
2022-10-10T00:41:17.115Z,9.23
2022-10-10T00:43:21.971Z,10.65
2022-10-10T00:45:34.549Z,12.15
2022-10-10T00:47:39.278Z,19.45
2022-10-10T00:49:46.445Z,17.63
2022-10-10T00:51:56.244Z,15.40
2022-10-10T00:54:06.897Z,16.17
2022-10-10T00:56:12.793Z,12.05
2022-10-10T00:58:19.423Z,12.60
2022-10-10T01:00:24.227Z,20.20
2022-10-10T01:02:28.980Z,18.70
2022-10-10T01:04:39.533Z,13.13
2022-10-10T01:06:46.763Z,12.25
2022-10-10T01:08:51.620Z,16.23
2022-10-10T01:11:13.449Z,17.52
2022-10-10T01:13:26.577Z,20.52
2022-10-10T01:15:39.645Z,18.92
2022-10-10T01:17:50.435Z,17.88
2022-10-10T01:20:25.462Z,24.25
2022-10-10T01:22:41.519Z,33.05
2022-10-10T01:24:59.297Z,37.33
2022-10-10T01:27:32.615Z,25.35
2022-10-10T01:29:42.506Z,20.33
2022-10-10T01:31:51.003Z,15.48
2022-10-10T01:34:05.170Z,19.75
2022-10-10T01:36:18.437Z,16.73
2022-10-10T01:38:33.526Z,14.52
2022-10-10T01:40:47.410Z,14.90
2022-10-10T01:42:57.092Z,8.10
2022-10-10T01:45:04.544Z,7.15
2022-10-10T01:47:12.134Z,6.18
2022-10-10T01:49:17.290Z,5.47
2022-10-10T01:51:40.427Z,5.13
2022-10-10T01:53:50.976Z,4.10
2022-10-10T01:56:01.859Z,6.40
2022-10-10T01:58:21.791Z,4.75
2022-10-10T02:00:29.259Z,4.13
2022-10-10T02:02:41.792Z,6.82
2022-10-10T02:04:52.912Z,4.20
2022-10-10T02:07:02.855Z,4.88
2022-10-10T02:09:13.017Z,4.38
2022-10-10T02:11:17.858Z,4.22
2022-10-10T02:13:26.233Z,4.60
2022-10-10T02:15:39.655Z,3.28
2022-10-10T02:17:48.707Z,3.55
2022-10-10T02:19:56.977Z,3.88
2022-10-10T02:22:02.563Z,3.72
2022-10-10T02:24:10.960Z,5.15
2022-10-10T02:26:18.828Z,6.75
2022-10-10T02:28:28.416Z,5.97
2022-10-10T02:30:37.734Z,8.65
2022-10-10T02:32:46.459Z,8.52
2022-10-10T02:34:54.863Z,4.20
2022-10-10T02:37:03.448Z,4.07
2022-10-10T02:39:10.212Z,3.95
2022-10-10T02:41:20.136Z,5.38
2022-10-10T02:43:25.249Z,4.55
2022-10-10T02:45:33.112Z,6.72
2022-10-10T02:47:40.447Z,4.85
2022-10-10T02:49:45.240Z,5.15
2022-10-10T02:51:49.995Z,5.93
2022-10-10T02:53:54.720Z,5.97
2022-10-10T02:55:59.508Z,4.72
2022-10-10T02:58:04.263Z,7.20
2022-10-10T03:00:10.844Z,6.90
2022-10-10T03:02:15.583Z,5.30
2022-10-10T03:04:22.942Z,5.85
2022-10-10T03:06:27.840Z,6.53
2022-10-10T03:08:32.562Z,9.15
2022-10-10T03:10:37.272Z,10.23
2022-10-10T03:12:42.056Z,13.77
2022-10-10T03:14:46.948Z,6.20
2022-10-10T03:16:51.683Z,6.68
2022-10-10T03:18:56.466Z,6.95
2022-10-10T03:21:03.803Z,5.78
2022-10-10T03:23:08.532Z,7.65
2022-10-10T03:25:13.291Z,6.30
2022-10-10T03:27:18.087Z,4.88
2022-10-10T03:29:22.921Z,6.68
2022-10-10T03:31:30.429Z,5.28
2022-10-10T03:33:35.234Z,6.15
2022-10-10T03:35:40.036Z,5.00
2022-10-10T03:37:47.385Z,6.95
2022-10-10T03:39:52.295Z,6.40
2022-10-10T03:41:57.033Z,5.55
2022-10-10T03:44:01.916Z,5.32
2022-10-10T03:46:06.799Z,4.97
2022-10-10T03:48:11.507Z,6.47
2022-10-10T03:50:16.497Z,6.93
2022-10-10T03:52:21.987Z,4.03
2022-10-10T03:54:29.559Z,7.55
2022-10-10T03:56:34.420Z,5.43
2022-10-10T03:58:39.283Z,6.10
2022-10-10T04:00:44.034Z,7.25
2022-10-10T04:02:49.262Z,6.63
2022-10-10T04:06:58.780Z,6.38
2022-10-10T04:09:04.447Z,6.22
2022-10-10T04:11:11.822Z,5.07
2022-10-10T04:13:16.622Z,5.10
2022-10-10T04:15:21.652Z,4.22
2022-10-10T04:17:26.421Z,4.72
2022-10-10T04:19:31.147Z,6.38
2022-10-10T04:21:35.860Z,4.43
2022-10-10T04:23:41.277Z,4.45
2022-10-10T04:25:48.022Z,4.15
2022-10-10T04:28:00.689Z,4.80
2022-10-10T04:30:06.235Z,4.63
2022-10-10T04:32:11.045Z,4.78
2022-10-10T04:34:15.763Z,3.80
2022-10-10T04:36:20.504Z,7.97
2022-10-10T04:38:25.352Z,8.40
2022-10-10T04:40:30.210Z,6.00
2022-10-10T04:42:34.967Z,4.82
2022-10-10T04:44:42.364Z,4.25
2022-10-10T04:46:47.291Z,7.28
2022-10-10T04:48:52.375Z,7.03
2022-10-10T04:50:58.032Z,6.97
2022-10-10T04:53:02.861Z,6.85
2022-10-10T04:55:08.572Z,6.22
2022-10-10T04:57:13.443Z,8.07
2022-10-10T04:59:18.361Z,7.45
2022-10-10T05:01:25.813Z,12.50
2022-10-10T05:03:30.813Z,8.13
2022-10-10T05:05:35.630Z,5.28
2022-10-10T05:07:40.573Z,8.95
2022-10-10T05:09:45.364Z,6.55
2022-10-10T05:11:50.148Z,9.52
2022-10-10T05:13:55.249Z,9.07
2022-10-10T05:16:00.840Z,6.03
2022-10-10T05:18:08.871Z,6.78
2022-10-10T05:20:13.846Z,5.65
2022-10-10T05:22:18.614Z,7.78
2022-10-10T05:24:23.363Z,6.53
2022-10-10T05:26:28.120Z,6.15
2022-10-10T05:28:35.318Z,7.22
2022-10-10T05:30:40.167Z,6.40
2022-10-10T05:32:45.620Z,5.65
2022-10-10T05:34:52.992Z,6.53
2022-10-10T05:36:58.157Z,6.88
2022-10-10T05:39:03.462Z,8.60
2022-10-10T05:43:13.333Z,10.63
2022-10-10T05:45:18.281Z,9.40
2022-10-10T05:47:27.639Z,8.05
2022-10-10T05:49:33.031Z,9.40
2022-10-10T05:51:40.396Z,8.77
2022-10-10T05:53:45.147Z,10.18
2022-10-10T05:55:49.968Z,10.98
2022-10-10T05:57:54.695Z,12.13
2022-10-10T05:59:59.440Z,14.48
2022-10-10T06:02:04.298Z,17.10
2022-10-10T06:04:09.277Z,9.82
2022-10-10T06:06:14.064Z,10.02
2022-10-10T06:08:21.770Z,9.38
2022-10-10T06:10:26.522Z,7.55
2022-10-10T06:12:31.261Z,10.02
2022-10-10T06:14:36.020Z,8.63
2022-10-10T06:16:42.753Z,7.05
2022-10-10T06:18:47.565Z,7.70
2022-10-10T06:20:52.360Z,8.00
2022-10-10T06:22:57.138Z,8.85
2022-10-10T06:25:04.527Z,12.00
2022-10-10T06:27:09.374Z,10.73
2022-10-10T06:29:14.132Z,14.77
2022-10-10T06:31:18.894Z,18.10
2022-10-10T06:33:23.820Z,9.73
2022-10-10T06:35:28.911Z,11.70
2022-10-10T06:37:33.711Z,14.30
2022-10-10T06:39:38.477Z,16.42
2022-10-10T06:41:45.831Z,13.05
2022-10-10T06:43:51.907Z,13.88
2022-10-10T06:45:56.769Z,11.82
2022-10-10T06:48:01.507Z,17.00
2022-10-10T06:50:06.719Z,11.07
2022-10-10T06:52:11.487Z,11.65
2022-10-10T06:54:16.388Z,11.30
2022-10-10T06:56:27.311Z,8.93
2022-10-10T06:58:36.228Z,7.63
2022-10-10T07:00:40.980Z,8.23
2022-10-10T07:02:45.838Z,14.10
2022-10-10T07:04:50.659Z,8.43
2022-10-10T07:06:55.495Z,9.30
2022-10-10T07:09:00.926Z,6.72
2022-10-10T07:11:07.295Z,6.78
2022-10-10T07:13:12.088Z,8.80
2022-10-10T07:15:19.938Z,9.75
2022-10-10T07:17:24.946Z,10.38
2022-10-10T07:19:29.781Z,11.77
2022-10-10T07:21:34.769Z,7.63
2022-10-10T07:23:39.714Z,8.45
2022-10-10T07:25:46.088Z,7.03
2022-10-10T07:27:50.929Z,8.55
2022-10-10T07:29:55.666Z,7.82
2022-10-10T07:32:03.055Z,8.95
2022-10-10T07:34:08.990Z,9.07
2022-10-10T07:36:14.542Z,7.55
2022-10-10T07:38:19.678Z,7.22
2022-10-10T07:40:24.704Z,8.05
2022-10-10T07:42:29.522Z,8.88
2022-10-10T07:44:34.894Z,5.75
2022-10-10T07:46:39.740Z,6.93
2022-10-10T07:48:48.881Z,5.88
2022-10-10T07:50:53.659Z,6.53
2022-10-10T07:52:58.374Z,10.15
2022-10-10T07:55:03.143Z,6.10
2022-10-10T07:57:07.956Z,6.82
2022-10-10T07:59:12.757Z,4.97
2022-10-10T08:01:17.669Z,6.38
2022-10-10T08:03:22.598Z,7.78
2022-10-10T08:05:30.029Z,8.98
2022-10-10T08:07:34.863Z,6.40
2022-10-10T08:09:39.743Z,7.18
2022-10-10T08:11:44.500Z,9.88
2022-10-10T08:13:49.280Z,7.18
2022-10-10T08:15:54.486Z,7.90
2022-10-10T08:17:59.234Z,10.68
2022-10-10T08:20:03.974Z,7.85
2022-10-10T08:22:11.418Z,7.13
2022-10-10T08:24:16.177Z,9.82
2022-10-10T08:26:21.793Z,8.27
2022-10-10T08:28:26.801Z,6.47
2022-10-10T08:30:31.766Z,8.05
2022-10-10T08:32:36.669Z,8.82
2022-10-10T08:34:41.546Z,8.57
2022-10-10T08:36:46.432Z,7.95
2022-10-10T08:38:56.320Z,9.07
2022-10-10T08:41:03.636Z,7.40
2022-10-10T08:43:12.289Z,7.43
2022-10-10T08:45:22.595Z,9.20
2022-10-10T08:47:34.913Z,8.60
2022-10-10T08:49:44.423Z,7.10
2022-10-10T08:51:54.871Z,6.65
2022-10-10T08:54:07.079Z,13.82
2022-10-10T08:56:19.396Z,10.10
2022-10-10T08:58:27.359Z,8.75
2022-10-10T09:00:37.457Z,7.35
2022-10-10T09:02:53.735Z,9.48
2022-10-10T09:04:59.643Z,6.13
2022-10-10T09:09:28.845Z,7.53
2022-10-10T09:11:48.834Z,8.73
2022-10-10T09:14:04.699Z,7.55
2022-10-10T09:16:21.166Z,6.43
2022-10-10T09:18:41.289Z,7.20
2022-10-10T09:20:54.253Z,10.82
2022-10-10T09:23:04.958Z,7.80
2022-10-10T09:25:21.742Z,7.93
2022-10-10T09:27:32.384Z,8.25
2022-10-10T09:29:43.615Z,9.55
2022-10-10T09:31:53.813Z,7.70
2022-10-10T09:34:03.324Z,8.82
2022-10-10T09:36:15.908Z,6.57
2022-10-10T09:38:34.983Z,9.02
2022-10-10T09:40:49.130Z,9.57
2022-10-10T09:42:53.882Z,8.15
2022-10-10T09:44:58.717Z,9.23
2022-10-10T09:47:03.578Z,10.38
2022-10-10T09:49:08.609Z,8.15
2022-10-10T09:51:17.295Z,7.32
2022-10-10T09:53:22.106Z,6.53
2022-10-10T09:55:30.699Z,8.75
2022-10-10T09:57:42.019Z,7.82
2022-10-10T09:59:48.170Z,8.70
2022-10-10T10:02:05.275Z,11.82
2022-10-10T10:04:30.894Z,8.75
2022-10-10T10:06:35.935Z,7.47
2022-10-10T10:08:40.780Z,8.23
2022-10-10T10:10:45.653Z,7.75
2022-10-10T10:12:54.301Z,9.02
2022-10-10T10:15:03.258Z,7.65
2022-10-10T10:17:11.222Z,9.30
2022-10-10T10:19:34.896Z,7.57
2022-10-10T10:21:52.122Z,7.55
2022-10-10T10:24:00.660Z,8.73
2022-10-10T10:26:08.170Z,9.20
2022-10-10T10:28:23.653Z,9.77
2022-10-10T10:30:29.060Z,8.82
2022-10-10T10:32:48.327Z,8.57
2022-10-10T10:35:18.497Z,5.88
2022-10-10T10:37:26.857Z,7.55
2022-10-10T10:39:45.299Z,9.30
2022-10-10T10:41:58.485Z,10.10
2022-10-10T10:44:32.689Z,8.48
2022-10-10T10:46:49.627Z,7.07
2022-10-10T10:49:03.284Z,10.93
2022-10-10T10:51:21.119Z,8.35
2022-10-10T10:53:38.763Z,7.03
2022-10-10T10:55:49.711Z,6.03
2022-10-10T10:59:04.954Z,8.70
2022-10-10T11:01:24.231Z,9.63
2022-10-10T11:05:19.452Z,7.65
2022-10-10T11:06:08.560Z,9.38
2022-10-10T11:08:42.551Z,8.10
2022-10-10T11:10:57.546Z,8.90
2022-10-10T11:13:09.499Z,9.77
2022-10-10T11:15:20.456Z,10.02
2022-10-10T11:17:37.160Z,8.43
2022-10-10T11:19:48.929Z,8.10
2022-10-10T11:22:00.750Z,6.70
2022-10-10T11:24:09.926Z,5.32
2022-10-10T11:26:21.970Z,8.63
2022-10-10T11:28:32.132Z,6.80
2022-10-10T11:30:42.420Z,8.70
2022-10-10T11:32:57.065Z,8.38
2022-10-10T11:35:28.660Z,7.00
2022-10-10T11:37:39.823Z,8.85
2022-10-10T11:39:48.949Z,6.50
2022-10-10T11:42:00.109Z,6.97
2022-10-10T11:44:10.289Z,8.57
2022-10-10T11:46:23.433Z,7.97
2022-10-10T11:48:42.776Z,13.40
2022-10-10T11:50:47.964Z,8.52
2022-10-10T11:55:04.934Z,8.38
2022-10-10T11:57:16.780Z,9.65
2022-10-10T11:59:29.744Z,11.18
2022-10-10T12:01:38.450Z,9.60
2022-10-10T12:03:46.113Z,9.07
2022-10-10T12:05:56.754Z,12.40
2022-10-10T12:08:18.152Z,9.02
2022-10-10T12:10:27.251Z,6.57
2022-10-10T12:12:36.590Z,8.18
2022-10-10T12:14:48.133Z,7.30
2022-10-10T12:16:53.525Z,9.32
2022-10-10T12:19:05.328Z,8.35
2022-10-10T12:21:13.725Z,8.75
2022-10-10T12:23:33.542Z,9.85
2022-10-10T12:25:42.242Z,7.35
2022-10-10T12:27:49.830Z,7.22
2022-10-10T12:30:24.860Z,7.50
2022-10-10T12:32:30.996Z,7.43
2022-10-10T12:35:00.786Z,7.75
2022-10-10T12:37:26.180Z,7.28
2022-10-10T12:39:37.259Z,8.03
2022-10-10T12:41:58.316Z,9.00
2022-10-10T12:44:21.796Z,14.27
2022-10-10T12:46:34.975Z,8.25
2022-10-10T12:48:39.933Z,7.45
2022-10-10T12:50:58.680Z,7.55
2022-10-10T12:53:05.845Z,7.28
2022-10-10T12:55:21.924Z,6.43
2022-10-10T12:57:34.185Z,10.07
2022-10-10T12:59:41.322Z,8.52
2022-10-10T13:01:53.067Z,7.30
2022-10-10T13:03:59.444Z,7.38
2022-10-10T13:06:11.297Z,8.82
2022-10-10T13:08:19.430Z,7.20
2022-10-10T13:10:26.799Z,7.03
2022-10-10T13:12:34.292Z,7.30
2022-10-10T13:14:43.743Z,10.15
2022-10-10T13:16:48.606Z,8.55
2022-10-10T13:18:55.344Z,10.43
2022-10-10T13:21:00.406Z,8.43
2022-10-10T13:23:14.179Z,8.73
2022-10-10T13:25:21.351Z,7.88
2022-10-10T13:27:29.206Z,8.77
2022-10-10T13:29:36.650Z,6.97
2022-10-10T13:31:41.681Z,6.72
2022-10-10T13:35:53.230Z,10.30
2022-10-10T13:38:01.976Z,5.10
2022-10-10T13:40:17.099Z,8.00
2022-10-10T13:42:35.109Z,9.35
2022-10-10T13:44:51.820Z,8.35
2022-10-10T13:46:56.698Z,7.00
2022-10-10T13:49:02.135Z,8.35
2022-10-10T13:51:10.741Z,5.60
2022-10-10T13:53:35.330Z,9.68
2022-10-10T13:55:43.346Z,9.55
2022-10-10T13:57:48.192Z,8.35
2022-10-10T14:00:02.971Z,7.05
2022-10-10T14:02:15.226Z,8.23
2022-10-10T14:04:25.117Z,8.38
2022-10-10T14:06:31.877Z,6.57
2022-10-10T14:08:36.762Z,7.40
2022-10-10T14:10:44.497Z,7.88
2022-10-10T14:12:54.120Z,9.15
2022-10-10T14:15:00.582Z,6.22
2022-10-10T14:17:07.816Z,7.35
2022-10-10T14:19:21.119Z,7.95
2022-10-10T14:21:26.113Z,7.45
2022-10-10T14:23:31.025Z,6.80
2022-10-10T14:27:43.318Z,7.80
2022-10-10T14:29:49.139Z,9.82
2022-10-10T14:31:54.282Z,6.60
2022-10-10T14:36:03.645Z,7.20
2022-10-10T14:38:08.535Z,8.18
2022-10-10T14:40:22.206Z,7.57
2022-10-10T14:42:28.467Z,5.70
2022-10-10T14:44:36.350Z,11.07
2022-10-10T14:46:42.436Z,10.45
2022-10-10T14:48:47.257Z,9.00
2022-10-10T14:50:52.792Z,7.95
2022-10-10T14:52:57.758Z,7.85
2022-10-10T14:55:02.742Z,9.23
2022-10-10T14:59:49.405Z,6.95
2022-10-10T15:01:48.904Z,7.47
2022-10-10T15:03:54.018Z,9.13
2022-10-10T15:08:03.449Z,8.48
2022-10-10T15:12:35.974Z,6.82
2022-10-10T15:14:40.773Z,9.48
2022-10-10T15:16:48.138Z,7.95
2022-10-10T15:18:54.366Z,6.40
2022-10-10T15:21:00.025Z,6.68
2022-10-10T15:23:07.437Z,6.30
2022-10-10T15:25:12.761Z,4.85
2022-10-10T15:27:17.606Z,9.63
2022-10-10T15:29:22.353Z,9.02
2022-10-10T15:31:32.823Z,6.53
2022-10-10T15:33:40.179Z,7.40
2022-10-10T15:36:08.081Z,10.00
2022-10-10T15:38:09.660Z,7.72
2022-10-10T15:40:16.571Z,6.35
2022-10-10T15:42:23.066Z,5.70
2022-10-10T15:44:28.296Z,4.97
2022-10-10T15:46:33.658Z,6.05
2022-10-10T15:48:41.028Z,5.22
2022-10-10T15:50:45.759Z,6.05
2022-10-10T15:52:50.915Z,6.07
2022-10-10T15:57:00.532Z,6.53
2022-10-10T15:59:05.718Z,6.60
2022-10-10T16:01:15.184Z,5.97
2022-10-10T16:03:19.954Z,8.52
2022-10-10T16:05:29.231Z,6.47
2022-10-10T16:07:40.737Z,6.93
2022-10-10T16:09:47.149Z,5.60
2022-10-10T16:11:51.942Z,5.60
2022-10-10T16:13:58.237Z,6.15
2022-10-10T16:16:06.184Z,7.70
2022-10-10T16:18:11.147Z,6.20
2022-10-10T16:20:16.094Z,10.68
2022-10-10T16:22:23.526Z,8.07
2022-10-10T16:24:28.330Z,8.55
2022-10-10T16:28:41.463Z,7.90
2022-10-10T16:30:46.305Z,6.22
2022-10-10T16:32:51.397Z,6.57
2022-10-10T16:37:00.661Z,9.50
2022-10-10T16:39:08.334Z,9.85
2022-10-10T16:41:29.134Z,14.07
2022-10-10T16:43:41.073Z,9.85
2022-10-10T16:45:46.438Z,10.02
2022-10-10T16:47:51.220Z,9.85
2022-10-10T16:49:55.929Z,9.13
2022-10-10T16:52:00.731Z,10.02
2022-10-10T16:54:08.841Z,11.32
2022-10-10T16:56:15.614Z,9.18
2022-10-10T16:58:20.393Z,10.95
2022-10-10T17:00:25.192Z,12.50
2022-10-10T17:02:29.965Z,9.20
2022-10-10T17:04:34.752Z,10.63
2022-10-10T17:06:39.737Z,12.48
2022-10-10T17:08:45.120Z,15.32
2022-10-10T17:10:52.475Z,15.07
2022-10-10T17:12:57.187Z,16.30
2022-10-10T17:15:02.254Z,12.68
2022-10-10T17:17:12.121Z,17.50
2022-10-10T17:19:17.600Z,19.95
2022-10-10T17:21:24.790Z,26.45
2022-10-10T17:23:29.501Z,32.95
2022-10-10T17:25:34.274Z,35.13
2022-10-10T17:27:42.502Z,28.10
2022-10-10T17:29:47.327Z,18.38
2022-10-10T17:31:52.099Z,12.25
2022-10-10T17:36:01.941Z,14.32
2022-10-10T17:38:27.888Z,8.27
2022-10-10T17:40:31.477Z,11.02
2022-10-10T17:42:36.831Z,14.15
2022-10-10T17:44:50.458Z,12.68
2022-10-10T17:46:58.686Z,13.15
2022-10-10T17:49:03.753Z,14.50
2022-10-10T17:51:09.721Z,8.52
2022-10-10T17:53:14.471Z,8.68
2022-10-10T17:55:19.543Z,9.10
2022-10-10T17:57:24.719Z,10.93
2022-10-10T17:59:29.802Z,11.85
2022-10-10T18:01:37.864Z,8.85
2022-10-10T18:03:42.899Z,10.70
2022-10-10T18:05:47.653Z,11.60
2022-10-10T18:07:54.306Z,11.25
2022-10-10T18:09:59.087Z,8.95
2022-10-10T18:12:03.818Z,10.02
2022-10-10T18:14:08.605Z,9.18
2022-10-10T18:16:15.469Z,11.07
2022-10-10T18:18:22.808Z,12.10
2022-10-10T18:20:27.808Z,10.05
2022-10-10T18:22:32.621Z,12.30
2022-10-10T18:24:37.386Z,14.77
2022-10-10T18:26:42.200Z,13.18
2022-10-10T18:28:47.372Z,10.15
2022-10-10T18:32:56.694Z,14.57
2022-10-10T18:35:04.223Z,13.77
2022-10-10T18:37:10.193Z,14.40
2022-10-10T18:39:20.032Z,15.10
2022-10-10T18:41:30.637Z,17.23
2022-10-10T18:43:35.640Z,17.13
2022-10-10T18:45:40.423Z,17.25
2022-10-10T18:47:45.211Z,14.40
2022-10-10T18:49:50.071Z,15.63
2022-10-10T18:51:57.425Z,13.27
2022-10-10T18:54:04.378Z,14.82
2022-10-10T18:56:09.762Z,16.23
2022-10-10T18:58:14.618Z,11.45
2022-10-10T19:00:19.990Z,15.30
2022-10-10T19:02:24.704Z,13.57
2022-10-10T19:04:29.713Z,13.95
2022-10-10T19:06:34.590Z,15.70
2022-10-10T19:08:42.764Z,16.05
2022-10-10T19:10:47.923Z,13.30
2022-10-10T19:14:57.259Z,13.18
2022-10-10T19:17:02.017Z,13.43
2022-10-10T19:19:07.365Z,14.18
2022-10-10T19:21:13.157Z,11.75
2022-10-10T19:23:19.748Z,13.02
2022-10-10T19:25:27.618Z,14.43
2022-10-10T19:27:32.418Z,15.32
2022-10-10T19:29:37.357Z,15.63
2022-10-10T19:31:43.488Z,12.68
2022-10-10T19:33:53.162Z,16.08
2022-10-10T19:35:57.944Z,14.98
2022-10-10T19:38:02.666Z,16.30
2022-10-10T19:40:09.012Z,15.65
2022-10-10T19:42:16.383Z,14.52
2022-10-10T19:44:21.165Z,14.57
2022-10-10T19:46:27.017Z,17.02
2022-10-10T19:48:32.897Z,18.45
2022-10-10T19:50:41.193Z,16.30
2022-10-10T19:52:46.084Z,14.55
2022-10-10T19:54:50.878Z,15.77
2022-10-10T19:56:55.662Z,15.70
2022-10-10T19:59:04.553Z,15.98
2022-10-10T20:01:10.078Z,18.65
2022-10-10T20:03:14.900Z,17.85
2022-10-10T20:05:20.892Z,16.60
2022-10-10T20:07:25.814Z,16.40
2022-10-10T20:09:30.696Z,12.85
2022-10-10T20:11:35.430Z,14.35
2022-10-10T20:13:40.271Z,16.63
2022-10-10T20:15:49.738Z,12.98
2022-10-10T20:17:54.521Z,15.88
2022-10-10T20:19:59.233Z,16.95
2022-10-10T20:22:03.964Z,17.67
2022-10-10T20:24:11.890Z,21.13
2022-10-10T20:26:18.889Z,19.05
2022-10-10T20:28:25.015Z,18.70
2022-10-10T20:30:29.775Z,13.68
2022-10-10T20:32:37.111Z,15.27
2022-10-10T20:34:41.861Z,19.73
2022-10-10T20:36:46.675Z,17.92
2022-10-10T20:38:55.223Z,13.50
2022-10-10T20:40:59.951Z,12.75
2022-10-10T20:43:04.747Z,15.20
2022-10-10T20:45:11.505Z,20.10
2022-10-10T20:47:16.359Z,15.38
2022-10-10T20:49:25.159Z,14.38
2022-10-10T20:51:30.985Z,13.48
2022-10-10T20:53:35.795Z,14.05
2022-10-10T20:55:40.688Z,13.02
2022-10-10T20:57:45.506Z,11.13
2022-10-10T20:59:50.234Z,11.63
2022-10-10T21:01:55.079Z,11.63
2022-10-10T21:04:00.252Z,14.32
2022-10-10T21:06:10.762Z,13.98
2022-10-10T21:08:15.886Z,16.83
2022-10-10T21:10:20.950Z,12.45
2022-10-10T21:12:25.703Z,15.90
2022-10-10T21:14:30.663Z,12.05
2022-10-10T21:16:36.946Z,12.25
2022-10-10T21:18:43.010Z,14.60
2022-10-10T21:20:51.971Z,13.98
2022-10-10T21:22:59.264Z,16.33
2022-10-10T21:25:04.184Z,12.18
2022-10-10T21:27:08.992Z,14.30
2022-10-10T21:29:13.994Z,15.45
2022-10-10T21:31:20.001Z,13.05
2022-10-10T21:33:24.766Z,13.00
2022-10-10T21:35:29.493Z,11.68
2022-10-10T21:37:34.245Z,15.85
2022-10-10T21:39:41.579Z,11.75
2022-10-10T21:41:46.323Z,13.23
2022-10-10T21:43:54.798Z,15.70
2022-10-10T21:46:05.772Z,10.98
2022-10-10T21:48:12.859Z,12.10
2022-10-10T21:50:17.737Z,12.80
2022-10-10T21:52:22.435Z,17.50
2022-10-10T21:54:27.238Z,13.00
2022-10-10T21:56:35.308Z,9.93
2022-10-10T21:58:42.689Z,15.48
2022-10-10T22:00:47.548Z,14.77
2022-10-10T22:02:52.507Z,12.10
2022-10-10T22:04:58.806Z,8.55
2022-10-10T22:07:04.714Z,10.90
2022-10-10T22:09:09.487Z,14.38
2022-10-10T22:11:17.172Z,13.82
2022-10-10T22:13:24.597Z,11.48
2022-10-10T22:15:30.435Z,10.50
2022-10-10T22:17:35.222Z,11.15
2022-10-10T22:19:40.155Z,8.77
2022-10-10T22:21:45.018Z,8.95
2022-10-10T22:23:49.827Z,9.35
2022-10-10T22:25:54.710Z,10.35
2022-10-10T22:28:05.164Z,14.48
2022-10-10T22:30:15.635Z,13.98
2022-10-10T22:32:20.367Z,8.80
2022-10-10T22:34:25.091Z,16.15
2022-10-10T22:36:29.860Z,12.85
2022-10-10T22:38:34.891Z,14.75
2022-10-10T22:42:44.607Z,11.48
2022-10-10T22:46:56.707Z,7.13
2022-10-10T22:49:01.567Z,7.75
2022-10-10T22:51:08.207Z,11.32
2022-10-10T22:53:13.061Z,12.07
2022-10-10T22:55:18.935Z,7.80
2022-10-10T22:57:23.886Z,8.25
2022-10-10T22:59:29.035Z,11.32
2022-10-10T23:03:40.934Z,10.30
2022-10-10T23:05:46.046Z,10.20
2022-10-10T23:07:50.755Z,10.52
2022-10-10T23:09:55.548Z,7.85
2022-10-10T23:12:00.285Z,8.80
2022-10-10T23:14:05.035Z,9.05
2022-10-10T23:16:11.025Z,7.78
2022-10-10T23:18:15.821Z,5.55
2022-10-10T23:20:23.157Z,6.43
2022-10-10T23:22:28.117Z,9.45
2022-10-10T23:24:32.848Z,6.75
2022-10-10T23:26:37.679Z,6.35
2022-10-10T23:28:44.906Z,6.82
2022-10-10T23:30:51.462Z,6.40
2022-10-10T23:32:56.210Z,5.63
2022-10-10T23:35:01.032Z,7.05
2022-10-10T23:37:08.363Z,5.13
2022-10-10T23:39:13.135Z,7.10
2022-10-10T23:41:17.953Z,5.65
2022-10-10T23:43:22.733Z,7.00
2022-10-10T23:45:27.472Z,7.18
2022-10-10T23:47:32.216Z,7.28
2022-10-10T23:49:36.979Z,6.20
2022-10-10T23:51:41.709Z,6.68
2022-10-10T23:53:49.109Z,4.60
2022-10-10T23:55:53.910Z,7.50
2022-10-10T23:57:58.779Z,7.80
